sensor_id;sensor_type;location;lat;lon;timestamp;temperature;humidity
16441;DHT22;8330;-33.858;151.184;2022-08-25T00:00:28;15.40;99.90
16441;DHT22;8330;-33.858;151.184;2022-08-25T00:02:59;15.50;99.90
16441;DHT22;8330;-33.858;151.184;2022-08-25T00:05:32;15.60;99.90
16441;DHT22;8330;-33.858;151.184;2022-08-25T00:08:04;15.70;99.90
16441;DHT22;8330;-33.858;151.184;2022-08-25T00:10:36;15.80;99.90
16441;DHT22;8330;-33.858;151.184;2022-08-25T00:13:07;15.80;99.90
16441;DHT22;8330;-33.858;151.184;2022-08-25T00:15:38;15.90;99.90
16441;DHT22;8330;-33.858;151.184;2022-08-25T00:18:10;16.00;99.90
16441;DHT22;8330;-33.858;151.184;2022-08-25T00:20:43;16.10;99.90
16441;DHT22;8330;-33.858;151.184;2022-08-25T00:23:13;16.30;99.90
16441;DHT22;8330;-33.858;151.184;2022-08-25T00:25:44;16.40;99.90
16441;DHT22;8330;-33.858;151.184;2022-08-25T00:28:16;16.50;99.90
16441;DHT22;8330;-33.858;151.184;2022-08-25T00:30:47;16.50;99.90
16441;DHT22;8330;-33.858;151.184;2022-08-25T00:33:18;16.50;99.90
16441;DHT22;8330;-33.858;151.184;2022-08-25T00:35:51;16.50;99.90
16441;DHT22;8330;-33.858;151.184;2022-08-25T00:38:23;16.60;99.90
16441;DHT22;8330;-33.858;151.184;2022-08-25T00:40:54;16.80;99.90
16441;DHT22;8330;-33.858;151.184;2022-08-25T00:43:45;16.80;99.90
16441;DHT22;8330;-33.858;151.184;2022-08-25T00:46:18;16.90;99.90
16441;DHT22;8330;-33.858;151.184;2022-08-25T00:48:52;16.90;99.90
16441;DHT22;8330;-33.858;151.184;2022-08-25T00:51:31;17.10;99.90
16441;DHT22;8330;-33.858;151.184;2022-08-25T00:54:03;17.10;99.90
16441;DHT22;8330;-33.858;151.184;2022-08-25T00:56:35;17.20;99.90
16441;DHT22;8330;-33.858;151.184;2022-08-25T00:59:06;17.30;99.90
16441;DHT22;8330;-33.858;151.184;2022-08-25T01:01:37;17.40;99.90
16441;DHT22;8330;-33.858;151.184;2022-08-25T01:04:08;17.50;99.90
16441;DHT22;8330;-33.858;151.184;2022-08-25T01:06:42;17.60;99.90
16441;DHT22;8330;-33.858;151.184;2022-08-25T01:09:13;17.60;99.90
16441;DHT22;8330;-33.858;151.184;2022-08-25T01:11:45;17.70;99.90
16441;DHT22;8330;-33.858;151.184;2022-08-25T01:14:18;17.80;99.90
16441;DHT22;8330;-33.858;151.184;2022-08-25T01:16:49;17.90;99.90
16441;DHT22;8330;-33.858;151.184;2022-08-25T01:19:21;17.90;99.90
16441;DHT22;8330;-33.858;151.184;2022-08-25T01:21:54;17.90;99.90
16441;DHT22;8330;-33.858;151.184;2022-08-25T01:24:30;18.00;99.90
16441;DHT22;8330;-33.858;151.184;2022-08-25T01:27:05;18.10;99.90
16441;DHT22;8330;-33.858;151.184;2022-08-25T01:29:37;18.20;99.90
16441;DHT22;8330;-33.858;151.184;2022-08-25T01:32:09;18.30;99.90
16441;DHT22;8330;-33.858;151.184;2022-08-25T01:34:42;18.30;99.90
16441;DHT22;8330;-33.858;151.184;2022-08-25T01:37:16;18.30;99.90
16441;DHT22;8330;-33.858;151.184;2022-08-25T01:39:47;18.40;99.90
16441;DHT22;8330;-33.858;151.184;2022-08-25T01:42:37;18.50;99.90
16441;DHT22;8330;-33.858;151.184;2022-08-25T01:45:11;18.50;99.90
16441;DHT22;8330;-33.858;151.184;2022-08-25T01:47:43;18.60;99.90
16441;DHT22;8330;-33.858;151.184;2022-08-25T01:50:14;18.60;99.90
16441;DHT22;8330;-33.858;151.184;2022-08-25T01:52:58;18.60;99.90
16441;DHT22;8330;-33.858;151.184;2022-08-25T01:55:30;18.70;99.90
16441;DHT22;8330;-33.858;151.184;2022-08-25T01:58:18;18.70;99.90
16441;DHT22;8330;-33.858;151.184;2022-08-25T02:00:50;18.70;99.90
16441;DHT22;8330;-33.858;151.184;2022-08-25T02:03:24;18.80;99.90
16441;DHT22;8330;-33.858;151.184;2022-08-25T02:05:56;18.60;99.90
16441;DHT22;8330;-33.858;151.184;2022-08-25T02:08:30;18.60;99.90
16441;DHT22;8330;-33.858;151.184;2022-08-25T02:11:00;18.60;99.90
16441;DHT22;8330;-33.858;151.184;2022-08-25T02:13:31;18.50;99.90
16441;DHT22;8330;-33.858;151.184;2022-08-25T02:16:02;18.50;99.90
16441;DHT22;8330;-33.858;151.184;2022-08-25T02:18:33;18.50;99.90
16441;DHT22;8330;-33.858;151.184;2022-08-25T02:21:04;18.40;99.90
16441;DHT22;8330;-33.858;151.184;2022-08-25T02:23:37;18.30;99.90
16441;DHT22;8330;-33.858;151.184;2022-08-25T02:26:08;18.20;99.90
16441;DHT22;8330;-33.858;151.184;2022-08-25T02:28:40;18.20;99.90
16441;DHT22;8330;-33.858;151.184;2022-08-25T02:31:11;18.10;99.90
16441;DHT22;8330;-33.858;151.184;2022-08-25T02:33:42;18.00;99.90
16441;DHT22;8330;-33.858;151.184;2022-08-25T02:36:13;17.90;99.90
16441;DHT22;8330;-33.858;151.184;2022-08-25T02:38:46;18.00;99.90
16441;DHT22;8330;-33.858;151.184;2022-08-25T02:41:19;17.80;99.90
16441;DHT22;8330;-33.858;151.184;2022-08-25T02:43:51;17.90;99.90
16441;DHT22;8330;-33.858;151.184;2022-08-25T02:46:22;17.90;99.90
16441;DHT22;8330;-33.858;151.184;2022-08-25T02:48:53;18.10;99.90
16441;DHT22;8330;-33.858;151.184;2022-08-25T02:51:25;18.30;99.90
16441;DHT22;8330;-33.858;151.184;2022-08-25T02:54:00;18.40;99.90
16441;DHT22;8330;-33.858;151.184;2022-08-25T02:56:31;18.60;99.90
16441;DHT22;8330;-33.858;151.184;2022-08-25T02:59:02;18.70;99.90
16441;DHT22;8330;-33.858;151.184;2022-08-25T03:01:33;18.70;99.90
16441;DHT22;8330;-33.858;151.184;2022-08-25T03:04:04;18.60;99.90
16441;DHT22;8330;-33.858;151.184;2022-08-25T03:06:35;18.50;99.90
16441;DHT22;8330;-33.858;151.184;2022-08-25T03:09:08;18.40;99.90
16441;DHT22;8330;-33.858;151.184;2022-08-25T03:11:39;18.30;99.90
16441;DHT22;8330;-33.858;151.184;2022-08-25T03:14:10;18.20;99.90
16441;DHT22;8330;-33.858;151.184;2022-08-25T03:16:41;18.10;99.90
16441;DHT22;8330;-33.858;151.184;2022-08-25T03:19:12;18.10;99.90
16441;DHT22;8330;-33.858;151.184;2022-08-25T03:21:43;18.00;99.90
16441;DHT22;8330;-33.858;151.184;2022-08-25T03:24:16;18.00;99.90
16441;DHT22;8330;-33.858;151.184;2022-08-25T03:26:47;17.80;99.90
16441;DHT22;8330;-33.858;151.184;2022-08-25T03:29:23;17.80;99.90
16441;DHT22;8330;-33.858;151.184;2022-08-25T03:31:55;17.80;99.90
16441;DHT22;8330;-33.858;151.184;2022-08-25T03:34:28;17.70;99.90
16441;DHT22;8330;-33.858;151.184;2022-08-25T03:36:59;17.70;99.90
16441;DHT22;8330;-33.858;151.184;2022-08-25T03:39:32;17.50;99.90
16441;DHT22;8330;-33.858;151.184;2022-08-25T03:42:04;17.50;99.90
16441;DHT22;8330;-33.858;151.184;2022-08-25T03:44:35;17.50;99.90
16441;DHT22;8330;-33.858;151.184;2022-08-25T03:47:06;17.40;99.90
16441;DHT22;8330;-33.858;151.184;2022-08-25T03:49:36;17.40;99.90
16441;DHT22;8330;-33.858;151.184;2022-08-25T03:52:07;17.40;99.90
16441;DHT22;8330;-33.858;151.184;2022-08-25T03:54:40;17.30;99.90
16441;DHT22;8330;-33.858;151.184;2022-08-25T03:57:11;17.30;99.90
16441;DHT22;8330;-33.858;151.184;2022-08-25T03:59:42;17.40;99.90
16441;DHT22;8330;-33.858;151.184;2022-08-25T04:02:13;17.40;99.90
16441;DHT22;8330;-33.858;151.184;2022-08-25T04:04:44;17.50;99.90
16441;DHT22;8330;-33.858;151.184;2022-08-25T04:07:15;17.50;99.90
16441;DHT22;8330;-33.858;151.184;2022-08-25T04:09:48;17.60;99.90
16441;DHT22;8330;-33.858;151.184;2022-08-25T04:12:19;17.70;99.90
16441;DHT22;8330;-33.858;151.184;2022-08-25T04:14:50;17.70;99.90
16441;DHT22;8330;-33.858;151.184;2022-08-25T04:17:21;17.70;99.90
16441;DHT22;8330;-33.858;151.184;2022-08-25T04:19:52;17.70;99.90
16441;DHT22;8330;-33.858;151.184;2022-08-25T04:22:24;17.60;99.90
16441;DHT22;8330;-33.858;151.184;2022-08-25T04:25:00;17.60;99.90
16441;DHT22;8330;-33.858;151.184;2022-08-25T04:27:53;17.60;99.90
16441;DHT22;8330;-33.858;151.184;2022-08-25T04:30:29;17.60;99.90
16441;DHT22;8330;-33.858;151.184;2022-08-25T04:33:07;17.50;99.90
16441;DHT22;8330;-33.858;151.184;2022-08-25T04:35:37;17.50;99.90
16441;DHT22;8330;-33.858;151.184;2022-08-25T04:38:09;17.50;99.90
16441;DHT22;8330;-33.858;151.184;2022-08-25T04:41:03;17.50;99.90
16441;DHT22;8330;-33.858;151.184;2022-08-25T04:43:39;17.50;99.90
16441;DHT22;8330;-33.858;151.184;2022-08-25T04:46:24;17.40;99.90
16441;DHT22;8330;-33.858;151.184;2022-08-25T04:48:58;17.40;99.90
16441;DHT22;8330;-33.858;151.184;2022-08-25T04:51:30;17.40;99.90
16441;DHT22;8330;-33.858;151.184;2022-08-25T04:54:16;17.40;99.90
16441;DHT22;8330;-33.858;151.184;2022-08-25T04:57:07;17.30;99.90
16441;DHT22;8330;-33.858;151.184;2022-08-25T04:59:39;17.40;99.90
16441;DHT22;8330;-33.858;151.184;2022-08-25T05:02:11;17.30;99.90
16441;DHT22;8330;-33.858;151.184;2022-08-25T05:04:42;17.30;99.90
16441;DHT22;8330;-33.858;151.184;2022-08-25T05:07:26;17.30;99.90
16441;DHT22;8330;-33.858;151.184;2022-08-25T05:09:57;17.20;99.90
16441;DHT22;8330;-33.858;151.184;2022-08-25T05:12:31;17.20;99.90
16441;DHT22;8330;-33.858;151.184;2022-08-25T05:15:02;17.20;99.90
16441;DHT22;8330;-33.858;151.184;2022-08-25T05:17:53;17.20;99.90
16441;DHT22;8330;-33.858;151.184;2022-08-25T05:20:25;17.20;99.90
16441;DHT22;8330;-33.858;151.184;2022-08-25T05:22:56;17.20;99.90
16441;DHT22;8330;-33.858;151.184;2022-08-25T05:25:27;17.10;99.90
16441;DHT22;8330;-33.858;151.184;2022-08-25T05:28:09;17.10;99.90
16441;DHT22;8330;-33.858;151.184;2022-08-25T05:30:58;17.10;99.90
16441;DHT22;8330;-33.858;151.184;2022-08-25T05:33:34;17.10;99.90
16441;DHT22;8330;-33.858;151.184;2022-08-25T05:36:06;17.10;99.90
16441;DHT22;8330;-33.858;151.184;2022-08-25T05:38:49;17.10;99.90
16441;DHT22;8330;-33.858;151.184;2022-08-25T05:41:23;17.10;99.90
16441;DHT22;8330;-33.858;151.184;2022-08-25T05:44:07;17.10;99.90
16441;DHT22;8330;-33.858;151.184;2022-08-25T05:46:39;17.10;99.90
16441;DHT22;8330;-33.858;151.184;2022-08-25T05:49:10;17.10;99.90
16441;DHT22;8330;-33.858;151.184;2022-08-25T05:51:43;17.00;99.90
16441;DHT22;8330;-33.858;151.184;2022-08-25T05:54:14;17.00;99.90
16441;DHT22;8330;-33.858;151.184;2022-08-25T05:56:45;17.00;99.90
16441;DHT22;8330;-33.858;151.184;2022-08-25T05:59:20;17.10;99.90
16441;DHT22;8330;-33.858;151.184;2022-08-25T06:01:58;17.10;99.90
16441;DHT22;8330;-33.858;151.184;2022-08-25T06:04:46;17.10;99.90
16441;DHT22;8330;-33.858;151.184;2022-08-25T06:07:17;17.10;99.90
16441;DHT22;8330;-33.858;151.184;2022-08-25T06:09:48;17.10;99.90
16441;DHT22;8330;-33.858;151.184;2022-08-25T06:12:23;17.10;99.90
16441;DHT22;8330;-33.858;151.184;2022-08-25T06:15:16;17.10;99.90
16441;DHT22;8330;-33.858;151.184;2022-08-25T06:17:49;17.10;99.90
16441;DHT22;8330;-33.858;151.184;2022-08-25T06:20:23;17.10;99.90
16441;DHT22;8330;-33.858;151.184;2022-08-25T06:23:08;17.10;99.90
16441;DHT22;8330;-33.858;151.184;2022-08-25T06:25:50;17.10;99.90
16441;DHT22;8330;-33.858;151.184;2022-08-25T06:28:34;17.10;99.90
16441;DHT22;8330;-33.858;151.184;2022-08-25T06:31:09;17.10;99.90
16441;DHT22;8330;-33.858;151.184;2022-08-25T06:33:42;17.20;99.90
16441;DHT22;8330;-33.858;151.184;2022-08-25T06:36:25;17.20;99.90
16441;DHT22;8330;-33.858;151.184;2022-08-25T06:39:03;17.20;99.90
16441;DHT22;8330;-33.858;151.184;2022-08-25T06:41:36;17.10;99.90
16441;DHT22;8330;-33.858;151.184;2022-08-25T06:44:08;17.20;99.90
16441;DHT22;8330;-33.858;151.184;2022-08-25T06:47:01;17.10;99.90
16441;DHT22;8330;-33.858;151.184;2022-08-25T06:49:33;17.10;99.90
16441;DHT22;8330;-33.858;151.184;2022-08-25T06:52:04;17.10;99.90
16441;DHT22;8330;-33.858;151.184;2022-08-25T06:54:40;17.20;99.90
16441;DHT22;8330;-33.858;151.184;2022-08-25T06:57:12;17.10;99.90
16441;DHT22;8330;-33.858;151.184;2022-08-25T06:59:43;17.20;99.90
16441;DHT22;8330;-33.858;151.184;2022-08-25T07:02:15;17.10;99.90
16441;DHT22;8330;-33.858;151.184;2022-08-25T07:04:47;17.10;99.90
16441;DHT22;8330;-33.858;151.184;2022-08-25T07:07:20;17.20;99.90
16441;DHT22;8330;-33.858;151.184;2022-08-25T07:09:51;17.10;99.90
16441;DHT22;8330;-33.858;151.184;2022-08-25T07:12:21;17.10;99.90
16441;DHT22;8330;-33.858;151.184;2022-08-25T07:14:52;17.10;99.90
16441;DHT22;8330;-33.858;151.184;2022-08-25T07:17:25;17.10;99.90
16441;DHT22;8330;-33.858;151.184;2022-08-25T07:19:56;17.10;99.90
16441;DHT22;8330;-33.858;151.184;2022-08-25T07:22:26;17.00;99.90
16441;DHT22;8330;-33.858;151.184;2022-08-25T07:24:57;17.00;99.90
16441;DHT22;8330;-33.858;151.184;2022-08-25T07:27:28;16.90;99.90
16441;DHT22;8330;-33.858;151.184;2022-08-25T07:29:59;16.90;99.90
16441;DHT22;8330;-33.858;151.184;2022-08-25T07:32:31;16.90;99.90
16441;DHT22;8330;-33.858;151.184;2022-08-25T07:35:03;16.80;99.90
16441;DHT22;8330;-33.858;151.184;2022-08-25T07:37:48;16.80;99.90
16441;DHT22;8330;-33.858;151.184;2022-08-25T07:40:22;16.80;99.90
16441;DHT22;8330;-33.858;151.184;2022-08-25T07:42:55;16.70;99.90
16441;DHT22;8330;-33.858;151.184;2022-08-25T07:45:28;16.70;99.90
16441;DHT22;8330;-33.858;151.184;2022-08-25T07:48:03;16.70;99.90
16441;DHT22;8330;-33.858;151.184;2022-08-25T07:50:35;16.60;99.90
16441;DHT22;8330;-33.858;151.184;2022-08-25T07:53:10;16.60;99.90
16441;DHT22;8330;-33.858;151.184;2022-08-25T07:55:41;16.60;99.90
16441;DHT22;8330;-33.858;151.184;2022-08-25T07:58:11;16.50;99.90
16441;DHT22;8330;-33.858;151.184;2022-08-25T08:00:46;16.50;99.90
16441;DHT22;8330;-33.858;151.184;2022-08-25T08:03:21;16.50;99.90
16441;DHT22;8330;-33.858;151.184;2022-08-25T08:05:52;16.40;99.90
16441;DHT22;8330;-33.858;151.184;2022-08-25T08:08:23;16.40;99.90
16441;DHT22;8330;-33.858;151.184;2022-08-25T08:10:54;16.40;99.90
16441;DHT22;8330;-33.858;151.184;2022-08-25T08:13:26;16.30;99.90
16441;DHT22;8330;-33.858;151.184;2022-08-25T08:15:56;16.20;99.90
16441;DHT22;8330;-33.858;151.184;2022-08-25T08:18:29;16.20;99.90
16441;DHT22;8330;-33.858;151.184;2022-08-25T08:21:00;16.20;99.90
16441;DHT22;8330;-33.858;151.184;2022-08-25T08:23:31;16.20;99.90
16441;DHT22;8330;-33.858;151.184;2022-08-25T08:26:01;16.10;99.90
16441;DHT22;8330;-33.858;151.184;2022-08-25T08:28:32;16.10;99.90
16441;DHT22;8330;-33.858;151.184;2022-08-25T08:31:03;16.10;99.90
16441;DHT22;8330;-33.858;151.184;2022-08-25T08:33:36;16.00;99.90
16441;DHT22;8330;-33.858;151.184;2022-08-25T08:36:09;16.00;99.90
16441;DHT22;8330;-33.858;151.184;2022-08-25T08:38:41;16.00;99.90
16441;DHT22;8330;-33.858;151.184;2022-08-25T08:41:24;16.00;99.90
16441;DHT22;8330;-33.858;151.184;2022-08-25T08:44:29;15.90;99.90
16441;DHT22;8330;-33.858;151.184;2022-08-25T08:47:07;15.90;99.90
16441;DHT22;8330;-33.858;151.184;2022-08-25T08:49:48;15.80;99.90
16441;DHT22;8330;-33.858;151.184;2022-08-25T08:52:32;15.80;99.90
16441;DHT22;8330;-33.858;151.184;2022-08-25T08:55:22;15.80;99.90
16441;DHT22;8330;-33.858;151.184;2022-08-25T08:57:56;15.70;99.90
16441;DHT22;8330;-33.858;151.184;2022-08-25T09:00:27;15.70;99.90
16441;DHT22;8330;-33.858;151.184;2022-08-25T09:03:03;15.70;99.90
16441;DHT22;8330;-33.858;151.184;2022-08-25T09:05:51;15.70;99.90
16441;DHT22;8330;-33.858;151.184;2022-08-25T09:08:24;15.60;99.90
16441;DHT22;8330;-33.858;151.184;2022-08-25T09:11:01;15.60;99.90
16441;DHT22;8330;-33.858;151.184;2022-08-25T09:13:45;15.60;99.90
16441;DHT22;8330;-33.858;151.184;2022-08-25T09:16:27;15.60;99.90
16441;DHT22;8330;-33.858;151.184;2022-08-25T09:22:20;15.60;99.90
16441;DHT22;8330;-33.858;151.184;2022-08-25T09:24:59;15.60;99.90
16441;DHT22;8330;-33.858;151.184;2022-08-25T09:27:37;15.60;99.90
16441;DHT22;8330;-33.858;151.184;2022-08-25T09:30:12;15.60;99.90
16441;DHT22;8330;-33.858;151.184;2022-08-25T09:32:45;15.60;99.90
16441;DHT22;8330;-33.858;151.184;2022-08-25T09:35:20;15.60;99.90
16441;DHT22;8330;-33.858;151.184;2022-08-25T09:38:02;15.60;99.90
16441;DHT22;8330;-33.858;151.184;2022-08-25T09:40:36;15.60;99.90
16441;DHT22;8330;-33.858;151.184;2022-08-25T09:43:20;15.70;99.90
16441;DHT22;8330;-33.858;151.184;2022-08-25T09:45:57;15.60;99.90
16441;DHT22;8330;-33.858;151.184;2022-08-25T09:48:30;15.60;99.90
16441;DHT22;8330;-33.858;151.184;2022-08-25T09:51:17;15.70;99.90
16441;DHT22;8330;-33.858;151.184;2022-08-25T09:53:54;15.70;99.90
16441;DHT22;8330;-33.858;151.184;2022-08-25T09:56:28;15.60;99.90
16441;DHT22;8330;-33.858;151.184;2022-08-25T09:59:21;15.60;99.90
16441;DHT22;8330;-33.858;151.184;2022-08-25T10:01:53;15.40;99.90
16441;DHT22;8330;-33.858;151.184;2022-08-25T10:04:26;15.20;99.90
16441;DHT22;8330;-33.858;151.184;2022-08-25T10:06:59;15.10;99.90
16441;DHT22;8330;-33.858;151.184;2022-08-25T10:09:39;15.10;99.90
16441;DHT22;8330;-33.858;151.184;2022-08-25T10:12:18;15.00;99.90
16441;DHT22;8330;-33.858;151.184;2022-08-25T10:14:51;15.00;99.90
16441;DHT22;8330;-33.858;151.184;2022-08-25T10:17:25;15.00;99.90
16441;DHT22;8330;-33.858;151.184;2022-08-25T10:20:15;15.00;99.90
16441;DHT22;8330;-33.858;151.184;2022-08-25T10:22:47;15.00;99.90
16441;DHT22;8330;-33.858;151.184;2022-08-25T10:25:23;15.00;99.90
16441;DHT22;8330;-33.858;151.184;2022-08-25T10:28:07;15.00;99.90
16441;DHT22;8330;-33.858;151.184;2022-08-25T10:30:50;14.90;99.90
16441;DHT22;8330;-33.858;151.184;2022-08-25T10:33:31;15.00;99.90
16441;DHT22;8330;-33.858;151.184;2022-08-25T10:36:12;15.00;99.90
16441;DHT22;8330;-33.858;151.184;2022-08-25T10:38:46;15.00;99.90
16441;DHT22;8330;-33.858;151.184;2022-08-25T10:41:39;15.00;99.90
16441;DHT22;8330;-33.858;151.184;2022-08-25T10:44:23;14.90;99.90
16441;DHT22;8330;-33.858;151.184;2022-08-25T10:47:38;14.90;99.90
16441;DHT22;8330;-33.858;151.184;2022-08-25T10:50:21;14.90;99.90
16441;DHT22;8330;-33.858;151.184;2022-08-25T10:53:05;14.90;99.90
16441;DHT22;8330;-33.858;151.184;2022-08-25T10:55:50;15.00;99.90
16441;DHT22;8330;-33.858;151.184;2022-08-25T11:01:41;15.00;99.90
16441;DHT22;8330;-33.858;151.184;2022-08-25T11:04:17;14.90;99.90
16441;DHT22;8330;-33.858;151.184;2022-08-25T11:06:56;14.90;99.90
16441;DHT22;8330;-33.858;151.184;2022-08-25T11:09:39;14.90;99.90
16441;DHT22;8330;-33.858;151.184;2022-08-25T11:12:17;14.90;99.90
16441;DHT22;8330;-33.858;151.184;2022-08-25T11:15:02;14.90;99.90
16441;DHT22;8330;-33.858;151.184;2022-08-25T11:17:47;14.90;99.90
16441;DHT22;8330;-33.858;151.184;2022-08-25T11:20:27;14.90;99.90
16441;DHT22;8330;-33.858;151.184;2022-08-25T11:23:10;14.90;99.90
16441;DHT22;8330;-33.858;151.184;2022-08-25T11:25:50;14.80;99.90
16441;DHT22;8330;-33.858;151.184;2022-08-25T11:28:42;14.80;99.90
16441;DHT22;8330;-33.858;151.184;2022-08-25T11:31:41;14.80;99.90
16441;DHT22;8330;-33.858;151.184;2022-08-25T11:34:15;14.70;99.90
16441;DHT22;8330;-33.858;151.184;2022-08-25T11:36:51;14.70;99.90
16441;DHT22;8330;-33.858;151.184;2022-08-25T11:39:36;14.70;99.90
16441;DHT22;8330;-33.858;151.184;2022-08-25T11:42:15;14.70;99.90
16441;DHT22;8330;-33.858;151.184;2022-08-25T11:45:07;14.60;99.90
16441;DHT22;8330;-33.858;151.184;2022-08-25T11:48:00;14.70;99.90
16441;DHT22;8330;-33.858;151.184;2022-08-25T11:50:36;14.70;99.90
16441;DHT22;8330;-33.858;151.184;2022-08-25T11:53:27;14.60;99.90
16441;DHT22;8330;-33.858;151.184;2022-08-25T11:56:06;14.70;99.90
16441;DHT22;8330;-33.858;151.184;2022-08-25T11:58:55;14.60;99.90
16441;DHT22;8330;-33.858;151.184;2022-08-25T12:02:03;14.60;99.90
16441;DHT22;8330;-33.858;151.184;2022-08-25T12:04:44;14.60;99.90
16441;DHT22;8330;-33.858;151.184;2022-08-25T12:07:24;14.60;99.90
16441;DHT22;8330;-33.858;151.184;2022-08-25T12:10:20;14.60;99.90
16441;DHT22;8330;-33.858;151.184;2022-08-25T12:13:01;14.60;99.90
16441;DHT22;8330;-33.858;151.184;2022-08-25T12:18:41;14.60;99.90
16441;DHT22;8330;-33.858;151.184;2022-08-25T12:21:33;14.60;99.90
16441;DHT22;8330;-33.858;151.184;2022-08-25T12:24:14;14.70;99.90
16441;DHT22;8330;-33.858;151.184;2022-08-25T12:26:57;14.60;99.90
16441;DHT22;8330;-33.858;151.184;2022-08-25T12:29:36;14.70;99.90
16441;DHT22;8330;-33.858;151.184;2022-08-25T12:32:37;14.70;99.90
16441;DHT22;8330;-33.858;151.184;2022-08-25T12:35:36;14.70;99.90
16441;DHT22;8330;-33.858;151.184;2022-08-25T12:38:41;14.60;99.90
16441;DHT22;8330;-33.858;151.184;2022-08-25T12:41:15;14.60;99.90
16441;DHT22;8330;-33.858;151.184;2022-08-25T12:43:52;14.50;99.90
16441;DHT22;8330;-33.858;151.184;2022-08-25T12:46:35;14.50;99.90
16441;DHT22;8330;-33.858;151.184;2022-08-25T12:49:31;14.40;99.90
16441;DHT22;8330;-33.858;151.184;2022-08-25T12:52:09;14.40;99.90
16441;DHT22;8330;-33.858;151.184;2022-08-25T12:54:54;14.30;99.90
16441;DHT22;8330;-33.858;151.184;2022-08-25T12:57:42;14.30;99.90
16441;DHT22;8330;-33.858;151.184;2022-08-25T13:00:31;14.30;99.90
16441;DHT22;8330;-33.858;151.184;2022-08-25T13:09:29;14.30;99.90
16441;DHT22;8330;-33.858;151.184;2022-08-25T13:12:26;14.30;99.90
16441;DHT22;8330;-33.858;151.184;2022-08-25T13:15:01;14.30;99.90
16441;DHT22;8330;-33.858;151.184;2022-08-25T13:17:34;14.30;99.90
16441;DHT22;8330;-33.858;151.184;2022-08-25T13:20:16;14.30;99.90
16441;DHT22;8330;-33.858;151.184;2022-08-25T13:22:50;14.30;99.90
16441;DHT22;8330;-33.858;151.184;2022-08-25T13:25:22;14.40;99.90
16441;DHT22;8330;-33.858;151.184;2022-08-25T13:27:58;14.40;99.90
16441;DHT22;8330;-33.858;151.184;2022-08-25T13:30:30;14.40;99.90
16441;DHT22;8330;-33.858;151.184;2022-08-25T13:33:16;14.40;99.90
16441;DHT22;8330;-33.858;151.184;2022-08-25T13:35:48;14.40;99.90
16441;DHT22;8330;-33.858;151.184;2022-08-25T13:38:40;14.40;99.90
16441;DHT22;8330;-33.858;151.184;2022-08-25T13:41:10;14.40;99.90
16441;DHT22;8330;-33.858;151.184;2022-08-25T13:43:47;14.40;99.90
16441;DHT22;8330;-33.858;151.184;2022-08-25T13:46:20;14.40;99.90
16441;DHT22;8330;-33.858;151.184;2022-08-25T13:49:00;14.30;99.90
16441;DHT22;8330;-33.858;151.184;2022-08-25T13:51:31;14.30;99.90
16441;DHT22;8330;-33.858;151.184;2022-08-25T13:54:03;14.30;99.90
16441;DHT22;8330;-33.858;151.184;2022-08-25T13:56:36;14.30;99.90
16441;DHT22;8330;-33.858;151.184;2022-08-25T13:59:20;14.20;99.90
16441;DHT22;8330;-33.858;151.184;2022-08-25T14:01:53;14.20;99.90
16441;DHT22;8330;-33.858;151.184;2022-08-25T14:04:29;14.20;99.90
16441;DHT22;8330;-33.858;151.184;2022-08-25T14:07:24;14.20;99.90
16441;DHT22;8330;-33.858;151.184;2022-08-25T14:09:57;14.10;99.90
16441;DHT22;8330;-33.858;151.184;2022-08-25T14:12:37;14.10;99.90
16441;DHT22;8330;-33.858;151.184;2022-08-25T14:15:25;14.10;99.90
16441;DHT22;8330;-33.858;151.184;2022-08-25T14:18:05;14.10;99.90
16441;DHT22;8330;-33.858;151.184;2022-08-25T14:20:36;14.10;99.90
16441;DHT22;8330;-33.858;151.184;2022-08-25T14:23:16;14.20;99.90
16441;DHT22;8330;-33.858;151.184;2022-08-25T14:25:48;14.20;99.90
16441;DHT22;8330;-33.858;151.184;2022-08-25T14:28:21;14.20;99.90
16441;DHT22;8330;-33.858;151.184;2022-08-25T14:30:56;14.20;99.90
16441;DHT22;8330;-33.858;151.184;2022-08-25T14:33:30;14.10;99.90
16441;DHT22;8330;-33.858;151.184;2022-08-25T14:36:02;14.10;99.90
16441;DHT22;8330;-33.858;151.184;2022-08-25T14:38:34;14.20;99.90
16441;DHT22;8330;-33.858;151.184;2022-08-25T14:41:06;14.20;99.90
16441;DHT22;8330;-33.858;151.184;2022-08-25T14:43:36;14.20;99.90
16441;DHT22;8330;-33.858;151.184;2022-08-25T14:46:12;14.20;99.90
16441;DHT22;8330;-33.858;151.184;2022-08-25T14:48:45;14.10;99.90
16441;DHT22;8330;-33.858;151.184;2022-08-25T14:51:17;14.10;99.90
16441;DHT22;8330;-33.858;151.184;2022-08-25T14:53:48;14.10;99.90
16441;DHT22;8330;-33.858;151.184;2022-08-25T14:56:19;14.10;99.90
16441;DHT22;8330;-33.858;151.184;2022-08-25T14:58:50;14.10;99.90
16441;DHT22;8330;-33.858;151.184;2022-08-25T15:01:23;14.10;99.90
16441;DHT22;8330;-33.858;151.184;2022-08-25T15:03:58;14.10;99.90
16441;DHT22;8330;-33.858;151.184;2022-08-25T15:06:31;14.00;99.90
16441;DHT22;8330;-33.858;151.184;2022-08-25T15:09:03;14.00;99.90
16441;DHT22;8330;-33.858;151.184;2022-08-25T15:11:39;13.90;99.90
16441;DHT22;8330;-33.858;151.184;2022-08-25T15:14:11;13.90;99.90
16441;DHT22;8330;-33.858;151.184;2022-08-25T15:16:46;13.90;99.90
16441;DHT22;8330;-33.858;151.184;2022-08-25T15:19:18;13.80;99.90
16441;DHT22;8330;-33.858;151.184;2022-08-25T15:21:50;13.70;99.90
16441;DHT22;8330;-33.858;151.184;2022-08-25T15:24:22;13.70;99.90
16441;DHT22;8330;-33.858;151.184;2022-08-25T15:26:54;13.70;99.90
16441;DHT22;8330;-33.858;151.184;2022-08-25T15:29:27;13.60;99.90
16441;DHT22;8330;-33.858;151.184;2022-08-25T15:32:05;13.60;99.90
16441;DHT22;8330;-33.858;151.184;2022-08-25T15:34:36;13.60;99.90
16441;DHT22;8330;-33.858;151.184;2022-08-25T15:37:09;13.50;99.90
16441;DHT22;8330;-33.858;151.184;2022-08-25T15:39:41;13.50;99.90
16441;DHT22;8330;-33.858;151.184;2022-08-25T15:42:12;13.50;99.90
16441;DHT22;8330;-33.858;151.184;2022-08-25T15:44:43;13.50;99.90
16441;DHT22;8330;-33.858;151.184;2022-08-25T15:47:16;13.50;99.90
16441;DHT22;8330;-33.858;151.184;2022-08-25T15:49:47;13.40;99.90
16441;DHT22;8330;-33.858;151.184;2022-08-25T15:52:17;13.40;99.90
16441;DHT22;8330;-33.858;151.184;2022-08-25T15:54:48;13.40;99.90
16441;DHT22;8330;-33.858;151.184;2022-08-25T15:57:19;13.40;99.90
16441;DHT22;8330;-33.858;151.184;2022-08-25T15:59:50;13.40;99.90
16441;DHT22;8330;-33.858;151.184;2022-08-25T16:02:23;13.30;99.90
16441;DHT22;8330;-33.858;151.184;2022-08-25T16:04:54;13.30;99.90
16441;DHT22;8330;-33.858;151.184;2022-08-25T16:07:25;13.40;99.90
16441;DHT22;8330;-33.858;151.184;2022-08-25T16:09:55;13.30;99.90
16441;DHT22;8330;-33.858;151.184;2022-08-25T16:12:26;13.30;99.90